Time;durP1;ratioP1;P1;durP2;ratioP2;P2;SDS_P1;SDS_P2;PMS_P1;PMS_P2;Temp;Humidity;BMP_temperature;BMP_pressure;BME280_temperature;BME280_humidity;BME280_pressure;Samples;Min_cycle;Max_cycle;Signal;HPM_P1;HPM_P2
2022/09/27 11:14:24;;;;;;;;;11.25;10.00;;;;;33.64;100.00;101463.22;4266976;33;51093;-45
2022/09/27 11:17:19;;;;;;;;;14.75;11.00;;;;;33.80;100.00;101444.22;5015649;28;51178;-46
2022/09/27 11:20:11;;;;;;;;;11.75;11.75;;;;;33.83;100.00;101449.47;5012023;28;51404;-50
2022/09/27 11:23:13;;;;;;;;;11.00;10.50;;;;;33.93;100.00;101437.63;5016072;28;51219;-45
2022/09/27 11:26:10;;;;;;;;;10.75;9.50;;;;;33.97;100.00;101434.44;5031208;28;52519;-46
2022/09/27 11:29:14;;;;;;;;;10.00;8.25;;;;;33.91;100.00;101432.25;5017913;28;51215;-47
2022/09/27 11:32:25;;;;;;;;;10.00;7.50;;;;;33.94;100.00;101429.19;5015964;28;51106;-46
2022/09/27 11:35:22;;;;;;;;;9.00;8.50;;;;;34.05;100.00;101419.03;5029652;28;51359;-48
2022/09/27 11:38:16;;;;;;;;;11.25;8.50;;;;;34.11;100.00;101416.56;5030493;28;51443;-51
2022/09/27 11:41:19;;;;;;;;;11.25;8.00;;;;;33.97;100.00;101415.09;5009396;28;51094;-47
2022/09/27 11:44:27;;;;;;;;;10.50;7.50;;;;;33.93;100.00;101404.50;5031079;28;51169;-48
2022/09/27 11:47:26;;;;;;;;;7.50;6.50;;;;;33.96;100.00;101405.06;5029953;28;51082;-47
2022/09/27 11:50:42;;;;;;;;;10.00;10.00;;;;;34.00;100.00;101408.41;5030815;28;51336;-46
2022/09/27 11:53:55;;;;;;;;;9.00;8.00;;;;;33.84;100.00;101411.69;5032357;28;51072;-48
2022/09/27 11:56:57;;;;;;;;;14.00;8.25;;;;;33.74;100.00;101411.69;5007191;28;51665;-47
2022/09/27 11:59:57;;;;;;;;;11.50;8.00;;;;;33.56;100.00;101403.22;5023761;28;51293;-45
2022/09/27 12:03:04;;;;;;;;;9.50;9.25;;;;;33.36;100.00;101405.91;5029095;28;51240;-47
2022/09/27 12:06:02;;;;;;;;;8.75;7.75;;;;;33.19;100.00;101384.44;5030961;28;51482;-48
2022/09/27 12:09:11;;;;;;;;;7.75;7.00;;;;;33.22;100.00;101390.59;5021978;28;51195;-45
2022/09/27 12:12:03;;;;;;;;;7.75;7.25;;;;;33.18;100.00;101391.88;5028383;28;51177;-45
2022/09/27 12:15:10;;;;;;;;;14.00;9.25;;;;;33.09;100.00;101381.66;5028794;28;51209;-45
2022/09/27 12:18:11;;;;;;;;;12.00;10.00;;;;;33.07;100.00;101387.28;5015547;28;51241;-48
2022/09/27 12:20:58;;;;;;;;;8.00;7.50;;;;;33.02;100.00;101388.72;5015645;28;51211;-48
2022/09/27 12:23:49;;;;;;;;;9.50;9.50;;;;;32.98;100.00;101384.50;5010921;28;51222;-44
2022/09/27 12:26:37;;;;;;;;;9.75;8.75;;;;;32.85;100.00;101391.09;5002335;28;51146;-48
2022/09/27 12:29:41;;;;;;;;;9.75;9.25;;;;;32.84;100.00;101386.59;5003330;28;51555;-51
2022/09/27 12:32:43;;;;;;;;;13.00;10.00;;;;;32.72;100.00;101372.00;5016647;28;51064;-49
2022/09/27 12:35:29;;;;;;;;;10.00;8.00;;;;;32.53;100.00;101381.00;5001582;28;51189;-46
2022/09/27 12:38:23;;;;;;;;;12.50;10.50;;;;;32.44;100.00;101381.81;5004038;28;51174;-50
2022/09/27 12:41:10;;;;;;;;;12.75;11.25;;;;;32.43;100.00;101374.56;5005443;28;51056;-49
2022/09/27 12:43:55;;;;;;;;;9.50;9.00;;;;;32.38;100.00;101363.94;5010915;28;51201;-48
2022/09/27 12:46:45;;;;;;;;;16.25;14.50;;;;;32.35;100.00;101372.47;5022301;28;51451;-50
2022/09/27 12:49:59;;;;;;;;;10.00;8.00;;;;;32.32;100.00;101364.50;5007463;28;51154;-48
2022/09/27 12:52:49;;;;;;;;;10.00;8.25;;;;;32.16;100.00;101359.41;5021668;28;51169;-47
2022/09/27 12:55:37;;;;;;;;;9.50;7.00;;;;;31.94;100.00;101361.22;5007034;28;51253;-47
2022/09/27 12:58:56;;;;;;;;;7.00;6.00;;;;;31.75;100.00;101356.41;5020644;28;51149;-48
2022/09/27 13:01:43;;;;;;;;;10.00;8.25;;;;;31.61;100.00;101368.53;5018599;28;51043;-47
2022/09/27 13:04:51;;;;;;;;;8.75;5.50;;;;;31.62;100.00;101356.53;5021008;28;51280;-47
2022/09/27 13:07:51;;;;;;;;;9.50;8.00;;;;;31.49;100.00;101351.16;5020530;28;51072;-48
2022/09/27 13:10:48;;;;;;;;;9.25;7.00;;;;;31.27;100.00;101360.31;5001490;28;51146;-49
2022/09/27 13:13:33;;;;;;;;;11.50;8.50;;;;;31.17;100.00;101346.44;5019475;28;51437;-46
2022/09/27 13:16:17;;;;;;;;;11.25;9.00;;;;;31.19;100.00;101344.44;5017772;28;51229;-48
2022/09/27 13:19:02;;;;;;;;;11.00;10.00;;;;;31.19;100.00;101351.84;5006184;28;51320;-47
2022/09/27 13:21:50;;;;;;;;;14.25;8.50;;;;;31.03;100.00;101342.06;5021566;28;51115;-51
2022/09/27 13:24:38;;;;;;;;;8.50;6.00;;;;;30.96;100.00;101351.81;5017652;28;51414;-46
2022/09/27 13:27:22;;;;;;;;;9.00;8.00;;;;;30.79;100.00;101346.81;5015677;28;51215;-47
2022/09/27 13:30:06;;;;;;;;;13.00;9.25;;;;;30.73;100.00;101356.41;5016485;28;51554;-47
2022/09/27 13:33:09;;;;;;;;;8.25;7.00;;;;;30.74;100.00;101353.53;5014162;28;51405;-50
2022/09/27 13:36:29;;;;;;;;;5.25;5.00;;;;;30.73;100.00;101346.28;5014464;28;51254;-47
2022/09/27 13:39:18;;;;;;;;;5.75;5.25;;;;;30.71;100.00;101336.44;4979227;28;51190;-49
2022/09/27 13:42:11;;;;;;;;;7.25;4.75;;;;;30.72;100.00;101328.03;5004415;28;51203;-47
2022/09/27 13:45:20;;;;;;;;;10.00;3.00;;;;;30.59;100.00;101333.66;5018688;28;51178;-47
2022/09/27 13:48:17;;;;;;;;;7.00;6.75;;;;;30.52;100.00;101312.25;5018620;28;51139;-48
2022/09/27 13:51:38;;;;;;;;;9.00;7.00;;;;;30.62;100.00;101323.44;5002653;28;51432;-47
2022/09/27 13:54:37;;;;;;;;;9.75;6.75;;;;;30.65;100.00;101310.31;5016417;28;51139;-48
2022/09/27 13:57:53;;;;;;;;;4.75;4.75;;;;;30.53;100.00;101308.56;5018486;28;51060;-47
2022/09/27 14:00:42;;;;;;;;;7.75;6.75;;;;;30.63;100.00;101305.97;5017965;28;51141;-48
2022/09/27 14:03:36;;;;;;;;;9.00;7.25;;;;;30.65;100.00;101292.94;5003197;28;51926;-48
2022/09/27 14:06:29;;;;;;;;;10.00;7.75;;;;;30.73;100.00;101290.47;5010327;28;51182;-48
2022/09/27 14:09:24;;;;;;;;;9.75;6.75;;;;;30.82;100.00;101289.72;4989258;28;51206;-47
2022/09/27 14:12:27;;;;;;;;;10.25;8.00;;;;;30.74;100.00;101279.38;5004240;28;51305;-51
2022/09/27 14:15:19;;;;;;;;;6.75;5.75;;;;;30.96;100.00;101273.97;5018424;28;51463;-48
2022/09/27 14:18:10;;;;;;;;;8.25;7.75;;;;;31.08;100.00;101272.97;5000537;28;51417;-48
2022/09/27 14:21:11;;;;;;;;;9.00;7.50;;;;;31.12;100.00;101265.38;5002327;28;51082;-47
2022/09/27 14:24:20;;;;;;;;;7.75;7.00;;;;;30.94;100.00;101267.75;5005261;28;51110;-49
2022/09/27 14:27:16;;;;;;;;;7.75;7.50;;;;;30.88;100.00;101278.22;5019922;28;51111;-47
2022/09/27 14:30:12;;;;;;;;;9.25;7.75;;;;;30.80;100.00;101275.25;5018600;28;51240;-47
2022/09/27 14:33:00;;;;;;;;;21.25;14.75;;;;;30.72;100.00;101273.13;5002712;28;51071;-47
2022/09/27 14:38:51;;;;;;;;;8.50;6.50;;;;;30.66;100.00;101270.88;5019905;28;51183;-51
2022/09/27 14:41:36;;;;;;;;;19.00;18.50;;;;;30.63;100.00;101262.88;5016827;28;51182;-47
2022/09/27 14:44:21;;;;;;;;;12.50;11.25;;;;;30.64;100.00;101264.63;4997950;28;51338;-52
2022/09/27 14:47:22;;;;;;;;;8.75;7.25;;;;;30.58;100.00;101263.25;5017582;28;51129;-49
2022/09/27 14:50:18;;;;;;;;;7.25;6.25;;;;;30.49;100.00;101271.31;5015851;28;51297;-49
2022/09/27 14:53:19;;;;;;;;;12.75;8.25;;;;;30.41;100.00;101255.47;5018487;28;51695;-49
2022/09/27 14:56:05;;;;;;;;;7.00;7.00;;;;;30.39;100.00;101268.44;5003133;28;51206;-47
2022/09/27 14:58:55;;;;;;;;;5.75;5.00;;;;;30.39;100.00;101266.56;5016546;28;51524;-48
2022/09/27 15:01:49;;;;;;;;;9.75;7.25;;;;;30.35;100.00;101267.81;5003623;28;51119;-47
2022/09/27 15:04:33;;;;;;;;;5.50;4.50;;;;;30.36;100.00;101254.94;5019825;28;51063;-50
2022/09/27 15:07:21;;;;;;;;;6.50;5.00;;;;;30.40;100.00;101264.69;5018422;28;51372;-47
2022/09/27 15:10:05;;;;;;;;;8.00;5.75;;;;;30.36;100.00;101264.06;5017667;28;51404;-46
2022/09/27 15:12:53;;;;;;;;;4.00;4.00;;;;;30.38;100.00;101267.53;5014079;28;51116;-47
2022/09/27 15:15:38;;;;;;;;;4.50;3.50;;;;;30.39;100.00;101263.81;5003655;28;51058;-46
2022/09/27 15:18:40;;;;;;;;;3.50;3.00;;;;;30.42;100.00;101274.56;5004100;28;51329;-52
2022/09/27 15:21:37;;;;;;;;;5.25;3.25;;;;;30.44;100.00;101272.56;4995605;28;51210;-51
2022/09/27 15:25:11;;;;;;;;;5.50;5.00;;;;;30.45;100.00;101262.44;4990560;28;51415;-46
2022/09/27 15:27:55;;;;;;;;;4.00;3.75;;;;;30.37;100.00;101260.31;4921694;28;51150;-47
2022/09/27 15:30:48;;;;;;;;;6.00;5.00;;;;;30.12;100.00;101267.75;4935854;28;51054;-48
2022/09/27 15:33:34;;;;;;;;;6.75;3.75;;;;;30.03;100.00;101267.59;5002605;28;51461;-50
2022/09/27 15:36:50;;;;;;;;;4.50;4.50;;;;;29.86;100.00;101234.09;5001271;28;51241;-47
2022/09/27 15:39:36;;;;;;;;;7.25;5.00;;;;;29.95;100.00;101257.19;5012556;28;51159;-47
2022/09/27 15:42:20;;;;;;;;;18.50;13.50;;;;;29.93;100.00;101260.06;5018913;28;51094;-46
2022/09/27 15:45:32;;;;;;;;;2.75;1.25;;;;;29.90;100.00;101246.56;5019007;28;51283;-49
2022/09/27 15:48:20;;;;;;;;;6.50;5.50;;;;;29.84;100.00;101252.53;5001504;28;51161;-47
2022/09/27 15:51:40;;;;;;;;;4.00;3.75;;;;;29.77;100.00;101246.66;5019118;28;51162;-50
2022/09/27 15:54:29;;;;;;;;;4.25;2.00;;;;;29.71;100.00;101247.13;5003885;28;51153;-52
2022/09/27 15:57:13;;;;;;;;;5.00;3.00;;;;;29.78;100.00;101245.66;5018747;28;51280;-49
2022/09/27 16:00:02;;;;;;;;;5.75;3.75;;;;;29.74;100.00;101246.88;4991283;28;51146;-47
2022/09/27 16:02:47;;;;;;;;;5.50;4.50;;;;;29.70;100.00;101245.38;5004487;28;51373;-47
2022/09/27 16:05:32;;;;;;;;;5.75;4.00;;;;;29.77;100.00;101264.97;5004343;28;51262;-48
2022/09/27 16:08:19;;;;;;;;;4.25;2.75;;;;;29.66;100.00;101258.47;5004772;28;51075;-49
2022/09/27 16:11:12;;;;;;;;;4.00;4.00;;;;;29.61;100.00;101265.28;5021873;28;51579;-49
2022/09/27 16:13:59;;;;;;;;;5.50;5.00;;;;;29.60;100.00;101271.75;5004565;28;51125;-49
2022/09/27 16:16:46;;;;;;;;;3.75;2.75;;;;;29.55;100.00;101268.47;5017582;28;51184;-50
2022/09/27 16:19:31;;;;;;;;;6.25;4.00;;;;;29.48;100.00;101266.22;5018740;28;51234;-50
2022/09/27 16:22:17;;;;;;;;;7.00;4.50;;;;;29.48;100.00;101273.53;5020286;28;51258;-49
2022/09/27 16:25:02;;;;;;;;;6.50;4.25;;;;;29.39;100.00;101283.34;5022083;28;51139;-47
2022/09/27 16:27:46;;;;;;;;;9.75;7.75;;;;;29.40;100.00;101284.22;5022389;28;51201;-51
2022/09/27 16:30:34;;;;;;;;;2.50;1.00;;;;;29.34;100.00;101269.09;5020496;28;51055;-49
2022/09/27 16:33:18;;;;;;;;;8.50;6.00;;;;;29.30;100.00;101284.03;5019003;28;51186;-51
2022/09/27 16:36:14;;;;;;;;;8.75;5.00;;;;;29.23;100.00;101300.91;5019853;28;51518;-48
2022/09/27 16:38:59;;;;;;;;;6.50;6.50;;;;;29.15;100.00;101299.75;5006564;28;51202;-46
2022/09/27 16:41:43;;;;;;;;;12.25;6.25;;;;;29.09;100.00;101312.03;5021071;28;51442;-48
2022/09/27 16:44:28;;;;;;;;;13.50;6.25;;;;;28.99;100.00;101316.41;5020345;28;51076;-48
2022/09/27 16:47:12;;;;;;;;;8.00;8.00;;;;;28.91;100.00;101314.22;5018958;28;51160;-48
2022/09/27 16:53:00;;;;;;;;;23.25;22.00;;;;;28.77;100.00;101315.22;5019380;28;51099;-47
2022/09/27 16:55:44;;;;;;;;;29.25;25.00;;;;;28.78;100.00;101305.13;5003956;28;51264;-49
2022/09/27 16:58:29;;;;;;;;;13.00;11.25;;;;;28.74;100.00;101312.72;5004548;28;51206;-49
2022/09/27 17:01:17;;;;;;;;;12.75;11.00;;;;;28.67;100.00;101316.84;5013637;28;51174;-48
2022/09/27 17:04:02;;;;;;;;;7.00;6.50;;;;;28.43;100.00;101299.28;5018630;28;51124;-47
2022/09/27 17:06:47;;;;;;;;;12.00;9.00;;;;;28.41;100.00;101304.00;5020331;28;51821;-48
2022/09/27 17:09:31;;;;;;;;;10.25;9.50;;;;;28.35;100.00;101309.06;5010895;28;51205;-49
2022/09/27 17:12:16;;;;;;;;;8.75;6.00;;;;;28.26;100.00;101307.81;5005322;28;51337;-48
2022/09/27 17:15:00;;;;;;;;;6.75;5.75;;;;;28.21;100.00;101316.34;5020901;28;51123;-48
2022/09/27 17:17:48;;;;;;;;;9.25;6.50;;;;;28.11;100.00;101327.03;5015832;28;51146;-47
2022/09/27 17:20:32;;;;;;;;;13.00;10.00;;;;;28.02;100.00;101327.66;5018241;28;51189;-49
2022/09/27 17:23:17;;;;;;;;;16.75;12.25;;;;;27.95;100.00;101324.44;5018973;28;51146;-48
2022/09/27 17:26:06;;;;;;;;;9.25;5.00;;;;;27.88;100.00;101322.25;5020467;28;51499;-46
2022/09/27 17:28:53;;;;;;;;;16.50;12.50;;;;;27.75;100.00;101322.19;5018612;28;51083;-50
2022/09/27 17:31:39;;;;;;;;;12.50;9.75;;;;;27.76;100.00;101338.50;5020308;28;51108;-46
2022/09/27 17:34:24;;;;;;;;;14.00;13.50;;;;;27.71;100.00;101348.84;4999871;28;51156;-50
2022/09/27 17:37:12;;;;;;;;;14.50;10.50;;;;;27.65;100.00;101341.94;5018419;28;51055;-46
2022/09/27 17:39:56;;;;;;;;;11.75;8.50;;;;;27.56;100.00;101345.28;5016513;28;51161;-49
2022/09/27 17:42:41;;;;;;;;;13.75;9.50;;;;;27.47;100.00;101346.75;5019724;28;51018;-46
2022/09/27 17:45:25;;;;;;;;;13.25;10.25;;;;;27.43;100.00;101352.50;5020236;28;51196;-47
2022/09/27 17:51:13;;;;;;;;;19.75;10.50;;;;;27.35;100.00;101355.75;5016945;28;51135;-50
2022/09/27 17:53:58;;;;;;;;;35.50;26.50;;;;;27.32;100.00;101365.00;5018398;28;51118;-46
2022/09/27 17:56:43;;;;;;;;;47.25;35.00;;;;;27.36;100.00;101373.88;5017974;28;51077;-45
2022/09/27 17:59:27;;;;;;;;;10.25;8.00;;;;;27.36;100.00;101377.50;5019877;28;51126;-51
2022/09/27 18:02:12;;;;;;;;;12.75;9.00;;;;;27.36;100.00;101384.81;5018540;28;50967;-48
2022/09/27 18:04:56;;;;;;;;;11.50;10.75;;;;;27.33;100.00;101377.69;5019063;28;51172;-48
2022/09/27 18:07:41;;;;;;;;;12.25;7.00;;;;;27.29;100.00;101389.81;5020159;28;51424;-49
2022/09/27 18:10:26;;;;;;;;;7.00;5.00;;;;;27.27;100.00;101377.22;5017829;28;51212;-47
2022/09/27 18:13:11;;;;;;;;;5.50;4.50;;;;;27.29;100.00;101392.56;5020011;28;51078;-47
2022/09/27 18:15:59;;;;;;;;;7.50;5.00;;;;;27.27;100.00;101402.69;5019709;28;51435;-49
2022/09/27 18:18:49;;;;;;;;;10.75;7.00;;;;;27.26;100.00;101403.66;5018715;28;52309;-46
2022/09/27 18:21:34;;;;;;;;;12.75;6.25;;;;;27.12;100.00;101384.53;5006034;28;51211;-47
2022/09/27 18:24:18;;;;;;;;;5.50;4.00;;;;;27.17;100.00;101402.38;5018923;28;51127;-47
2022/09/27 18:27:03;;;;;;;;;4.75;4.00;;;;;27.18;100.00;101416.94;5012317;28;51340;-47
2022/09/27 18:29:47;;;;;;;;;4.25;3.50;;;;;27.18;100.00;101425.13;5016464;28;51083;-48
2022/09/27 18:32:32;;;;;;;;;2.75;2.75;;;;;27.17;100.00;101439.78;5013555;28;51026;-49
2022/09/27 18:35:18;;;;;;;;;2.75;2.75;;;;;27.15;100.00;101425.31;5017247;28;51191;-46
2022/09/27 18:38:03;;;;;;;;;5.00;1.75;;;;;27.13;100.00;101432.72;5006277;28;52103;-46
2022/09/27 18:40:48;;;;;;;;;4.25;4.25;;;;;27.10;100.00;101432.91;5013624;28;51237;-46
2022/09/27 18:43:32;;;;;;;;;9.25;4.00;;;;;27.12;100.00;101444.63;5018589;28;51269;-49
2022/09/27 18:46:20;;;;;;;;;9.00;5.75;;;;;27.10;100.00;101441.09;5019274;28;51332;-49
2022/09/27 18:49:07;;;;;;;;;3.00;3.00;;;;;27.13;100.00;101446.38;5017070;28;51259;-47
2022/09/27 18:51:52;;;;;;;;;2.50;2.00;;;;;27.09;100.00;101459.34;5016439;28;51522;-48
2022/09/27 18:54:39;;;;;;;;;3.75;3.00;;;;;27.04;100.00;101464.22;5016657;28;51182;-49
2022/09/27 18:57:24;;;;;;;;;5.25;3.75;;;;;27.01;100.00;101476.22;5013435;28;51202;-50
2022/09/27 19:00:09;;;;;;;;;3.00;3.00;;;;;27.01;100.00;101478.94;5017331;28;51150;-48
2022/09/27 19:02:53;;;;;;;;;4.75;4.75;;;;;27.04;100.00;101488.78;5015932;28;51282;-49
2022/09/27 19:05:38;;;;;;;;;8.25;7.00;;;;;27.08;100.00;101492.25;5016921;28;51190;-47
2022/09/27 19:08:23;;;;;;;;;6.50;5.25;;;;;27.08;100.00;101484.91;5014628;28;52145;-47
2022/09/27 19:11:10;;;;;;;;;4.25;3.00;;;;;27.12;100.00;101488.34;5000247;28;51683;-47
2022/09/27 19:13:56;;;;;;;;;2.50;2.25;;;;;27.05;100.00;101488.72;5014803;28;51239;-46
2022/09/27 19:16:40;;;;;;;;;5.75;4.00;;;;;27.04;100.00;101499.72;5015718;28;51342;-47
2022/09/27 19:19:25;;;;;;;;;6.50;4.25;;;;;27.08;100.00;101506.75;5015021;28;51229;-48
2022/09/27 19:22:09;;;;;;;;;3.25;3.25;;;;;27.08;100.00;101509.50;5001075;28;51421;-46
2022/09/27 19:24:54;;;;;;;;;3.50;1.50;;;;;27.09;100.00;101510.41;5017177;28;51146;-46
2022/09/27 19:27:38;;;;;;;;;4.25;2.00;;;;;27.07;100.00;101507.72;5017403;28;51265;-49
2022/09/27 19:30:22;;;;;;;;;3.00;3.00;;;;;27.07;100.00;101515.94;5015404;28;51415;-48
2022/09/27 19:33:07;;;;;;;;;6.00;4.00;;;;;27.06;100.00;101520.53;5015787;28;51272;-46
2022/09/27 19:35:52;;;;;;;;;5.25;3.50;;;;;27.06;100.00;101522.34;5020325;28;51032;-46
2022/09/27 19:38:37;;;;;;;;;4.50;3.00;;;;;27.04;100.00;101525.19;5022156;28;51462;-49
2022/09/27 19:41:21;;;;;;;;;4.50;3.25;;;;;27.05;100.00;101523.34;5020675;28;52591;-47
2022/09/27 19:44:06;;;;;;;;;7.00;5.25;;;;;27.05;100.00;101529.69;5018353;28;52192;-47
2022/09/27 19:46:50;;;;;;;;;9.25;6.25;;;;;27.09;100.00;101524.06;5020246;28;51626;-45
2022/09/27 19:49:35;;;;;;;;;6.50;4.00;;;;;27.08;100.00;101523.16;5020855;28;51199;-50
2022/09/27 19:52:19;;;;;;;;;4.25;4.00;;;;;27.12;100.00;101534.75;5006460;28;51164;-49
2022/09/27 19:55:04;;;;;;;;;7.25;3.25;;;;;27.02;100.00;101513.47;5004880;28;51373;-47
2022/09/27 19:57:49;;;;;;;;;11.00;8.50;;;;;27.11;100.00;101528.44;5002028;28;51272;-46
2022/09/27 20:00:33;;;;;;;;;12.75;8.00;;;;;27.12;100.00;101537.50;5022086;28;51593;-50
2022/09/27 20:03:18;;;;;;;;;11.50;11.00;;;;;27.10;100.00;101536.72;5019595;28;51214;-46
2022/09/27 20:06:04;;;;;;;;;2.75;1.75;;;;;27.11;100.00;101541.19;5020302;28;51131;-47
2022/09/27 20:08:49;;;;;;;;;4.00;3.50;;;;;27.08;100.00;101549.59;5022346;28;51082;-51
2022/09/27 20:11:33;;;;;;;;;12.25;6.25;;;;;27.04;100.00;101540.69;5022123;28;51186;-48
2022/09/27 20:14:18;;;;;;;;;9.00;6.25;;;;;27.07;100.00;101551.44;5021995;28;51074;-48
2022/09/27 20:17:02;;;;;;;;;7.75;6.50;;;;;27.08;100.00;101544.13;5019495;28;51121;-46
2022/09/27 20:19:47;;;;;;;;;8.75;4.00;;;;;27.07;100.00;101548.72;5019349;28;51332;-46
2022/09/27 20:22:31;;;;;;;;;7.00;5.00;;;;;27.05;100.00;101546.06;5020813;28;51170;-48
2022/09/27 20:25:16;;;;;;;;;11.00;5.50;;;;;27.04;100.00;101554.34;5020219;28;51563;-46
2022/09/27 20:28:03;;;;;;;;;5.00;3.25;;;;;27.02;100.00;101556.31;5021307;28;51284;-47
2022/09/27 20:30:59;;;;;;;;;5.00;2.00;;;;;27.00;100.00;101558.25;5018510;28;51767;-47
2022/09/27 20:33:45;;;;;;;;;5.25;2.75;;;;;27.00;100.00;101570.03;5020691;28;51541;-47
2022/09/27 20:36:38;;;;;;;;;3.75;3.75;;;;;27.00;100.00;101570.03;5021837;28;51378;-48
2022/09/27 20:39:23;;;;;;;;;2.75;2.75;;;;;26.96;100.00;101570.31;5021270;28;51234;-50
2022/09/27 20:42:08;;;;;;;;;3.00;3.00;;;;;26.97;100.00;101581.19;5021143;28;51134;-50
2022/09/27 20:44:52;;;;;;;;;5.25;4.25;;;;;26.97;100.00;101578.44;5016952;28;51533;-44
2022/09/27 20:47:38;;;;;;;;;4.75;3.00;;;;;26.98;100.00;101588.41;5021433;28;51088;-47
2022/09/27 20:50:22;;;;;;;;;4.75;3.25;;;;;26.97;100.00;101591.19;5021621;28;51430;-47
2022/09/27 20:53:07;;;;;;;;;6.50;4.00;;;;;26.97;100.00;101588.47;5019748;28;51168;-47
2022/09/27 20:55:56;;;;;;;;;4.25;4.00;;;;;26.95;100.00;101594.03;5021078;28;51176;-48
2022/09/27 20:58:40;;;;;;;;;3.75;3.75;;;;;27.00;100.00;101608.28;5020256;28;51162;-49
2022/09/27 21:01:26;;;;;;;;;3.50;3.00;;;;;27.00;100.00;101613.75;5021275;28;51004;-46
2022/09/27 21:04:13;;;;;;;;;3.25;3.00;;;;;26.98;100.00;101610.25;5019826;28;51399;-45
2022/09/27 21:06:57;;;;;;;;;11.50;9.00;;;;;26.98;100.00;101620.28;5020158;28;51238;-46
2022/09/27 21:09:42;;;;;;;;;11.25;7.75;;;;;26.97;100.00;101618.50;5021205;28;51517;-49
2022/09/27 21:12:28;;;;;;;;;11.75;9.50;;;;;26.99;100.00;101616.56;5020982;28;51067;-49
2022/09/27 21:15:13;;;;;;;;;11.75;10.50;;;;;26.98;100.00;101621.16;5018698;28;51295;-46
2022/09/27 21:17:57;;;;;;;;;8.25;5.75;;;;;26.96;100.00;101617.66;5019018;28;51019;-47
2022/09/27 21:20:42;;;;;;;;;7.25;4.25;;;;;26.99;100.00;101613.84;5020826;28;51509;-48
2022/09/27 21:23:28;;;;;;;;;6.00;4.00;;;;;26.98;100.00;101618.44;5018004;28;51520;-47
2022/09/27 21:26:16;;;;;;;;;6.50;3.75;;;;;27.00;100.00;101618.34;5020773;28;51497;-48
2022/09/27 21:29:05;;;;;;;;;5.50;4.00;;;;;26.99;100.00;101627.50;5017723;28;51160;-48
2022/09/27 21:31:49;;;;;;;;;3.00;3.00;;;;;26.97;100.00;101619.41;5021195;28;51095;-50
2022/09/27 21:34:34;;;;;;;;;6.00;3.50;;;;;26.97;100.00;101622.13;5018724;28;51130;-48
2022/09/27 21:37:18;;;;;;;;;7.00;3.50;;;;;26.95;100.00;101626.81;5020618;28;51093;-46
2022/09/27 21:40:03;;;;;;;;;5.25;2.75;;;;;26.96;100.00;101634.03;5020446;28;51076;-48
2022/09/27 21:42:49;;;;;;;;;7.00;4.00;;;;;26.99;100.00;101632.97;5020405;28;51656;-47
2022/09/27 21:45:34;;;;;;;;;66.00;49.25;;;;;26.97;100.00;101641.25;5018505;28;51153;-53
2022/09/27 21:48:18;;;;;;;;;42.75;35.75;;;;;26.99;100.00;101642.03;5020936;28;51197;-45
2022/09/27 21:51:08;;;;;;;;;51.50;41.00;;;;;27.00;100.00;101643.78;5020329;28;51684;-45
2022/09/27 21:53:59;;;;;;;;;53.50;42.50;;;;;27.03;100.00;101640.00;5018787;28;51183;-47
2022/09/27 21:56:43;;;;;;;;;28.75;26.00;;;;;27.03;100.00;101654.53;4996765;28;51153;-45
2022/09/27 21:59:28;;;;;;;;;11.25;9.00;;;;;27.04;100.00;101653.56;5016869;28;51186;-48
2022/09/27 22:02:12;;;;;;;;;6.50;4.25;;;;;27.04;100.00;101652.66;5015926;28;51319;-46
2022/09/27 22:04:58;;;;;;;;;5.00;4.00;;;;;27.04;100.00;101652.66;5015209;28;51148;-48
2022/09/27 22:07:42;;;;;;;;;7.50;5.00;;;;;27.06;100.00;101648.00;5016519;28;51172;-46
2022/09/27 22:10:27;;;;;;;;;8.50;5.25;;;;;27.06;100.00;101643.44;5018787;28;51454;-46
2022/09/27 22:13:12;;;;;;;;;9.25;2.25;;;;;27.04;100.00;101634.44;5018295;28;51165;-49
2022/09/27 22:16:05;;;;;;;;;3.75;3.00;;;;;26.99;100.00;101632.97;4990955;28;51059;-45
2022/09/27 22:18:51;;;;;;;;;3.00;3.00;;;;;27.01;100.00;101647.41;5019558;28;51090;-47
2022/09/27 22:21:37;;;;;;;;;7.50;3.00;;;;;27.03;100.00;101648.22;5004578;28;51323;-48
2022/09/27 22:24:21;;;;;;;;;6.75;3.00;;;;;27.05;100.00;101651.69;5019410;28;51186;-46
2022/09/27 22:27:05;;;;;;;;;9.50;4.75;;;;;27.06;100.00;101648.00;5019311;28;51199;-45
2022/09/27 22:29:50;;;;;;;;;4.75;3.00;;;;;27.03;100.00;101642.75;5019510;28;51167;-45
2022/09/27 22:32:34;;;;;;;;;7.75;2.25;;;;;27.06;100.00;101654.38;5019779;28;51158;-47
2022/09/27 22:35:20;;;;;;;;;5.75;3.00;;;;;27.06;100.00;101656.19;5019184;28;51598;-47
2022/09/27 22:38:05;;;;;;;;;7.00;3.00;;;;;27.05;100.00;101643.50;5004169;28;51113;-50
2022/09/27 22:41:00;;;;;;;;;5.75;4.25;;;;;27.04;100.00;101652.66;5019682;28;51152;-49
2022/09/27 22:43:45;;;;;;;;;7.50;4.00;;;;;27.02;100.00;101649.19;5019112;28;51233;-46
2022/09/27 22:46:30;;;;;;;;;3.50;2.25;;;;;27.03;100.00;101645.47;4990806;28;51080;-47
2022/09/27 22:49:14;;;;;;;;;7.00;6.75;;;;;27.01;100.00;101626.44;5018948;28;51090;-49
2022/09/27 22:51:58;;;;;;;;;5.50;5.50;;;;;27.02;100.00;101633.66;5019370;28;51136;-45
2022/09/27 22:54:43;;;;;;;;;9.00;5.00;;;;;27.04;100.00;101631.72;5013733;28;51205;-46
2022/09/27 22:57:27;;;;;;;;;4.75;4.25;;;;;27.05;100.00;101632.59;5019380;28;51098;-46
2022/09/27 23:00:12;;;;;;;;;8.25;5.00;;;;;27.07;100.00;101633.38;5018903;28;51327;-47
2022/09/27 23:02:57;;;;;;;;;5.25;5.25;;;;;27.08;100.00;101637.00;5004219;28;52042;-47
2022/09/27 23:05:42;;;;;;;;;7.00;4.00;;;;;27.12;100.00;101633.09;5019158;28;51321;-47
2022/09/27 23:08:26;;;;;;;;;9.00;4.25;;;;;27.12;100.00;101630.38;5003584;28;51143;-45
2022/09/27 23:11:12;;;;;;;;;11.00;2.75;;;;;27.15;100.00;101622.88;5003033;28;51133;-46
2022/09/27 23:13:57;;;;;;;;;6.25;5.25;;;;;27.14;100.00;101620.25;5017016;28;51244;-47
2022/09/27 23:16:41;;;;;;;;;8.50;5.25;;;;;27.17;100.00;101620.06;5017646;28;51161;-48
2022/09/27 23:19:26;;;;;;;;;11.50;5.00;;;;;27.16;100.00;101610.09;5017608;28;51189;-45
2022/09/27 23:22:10;;;;;;;;;9.00;5.00;;;;;27.12;100.00;101592.13;5017817;28;51138;-46
2022/09/27 23:24:55;;;;;;;;;6.25;4.00;;;;;27.21;100.00;101606.13;5018431;28;51609;-47
2022/09/27 23:27:45;;;;;;;;;5.00;3.50;;;;;27.27;100.00;101606.72;5018778;28;51114;-46
2022/09/27 23:30:30;;;;;;;;;7.00;3.00;;;;;27.26;100.00;101597.66;5015297;28;51181;-48
2022/09/27 23:33:14;;;;;;;;;5.00;4.25;;;;;27.27;100.00;101593.94;5018924;28;51101;-47
2022/09/27 23:36:01;;;;;;;;;4.00;2.50;;;;;27.24;100.00;101594.13;5004145;28;51080;-47
2022/09/27 23:38:47;;;;;;;;;6.25;3.25;;;;;27.19;100.00;101586.22;5018778;28;51180;-47
2022/09/27 23:41:31;;;;;;;;;7.50;3.75;;;;;27.12;100.00;101579.38;5019200;28;51130;-47
2022/09/27 23:44:16;;;;;;;;;13.00;5.25;;;;;27.10;100.00;101578.56;5018707;28;51134;-47
2022/09/27 23:47:01;;;;;;;;;9.25;6.00;;;;;27.08;100.00;101576.91;5019109;28;51080;-47
2022/09/27 23:49:45;;;;;;;;;4.75;3.50;;;;;27.07;100.00;101581.47;5018733;28;51446;-48
2022/09/27 23:52:29;;;;;;;;;6.25;5.00;;;;;27.06;100.00;101566.06;5018806;28;51131;-48
2022/09/27 23:55:14;;;;;;;;;7.50;5.00;;;;;27.08;100.00;101558.66;5019010;28;51455;-51
2022/09/27 23:57:58;;;;;;;;;7.00;4.00;;;;;27.07;100.00;101554.16;5018710;28;51198;-46
